createdAt,value
2023-03-12T00:01:21.062Z,101066.41
2023-03-12T00:06:18.768Z,101067.22
2023-03-12T00:11:18.320Z,101072.09
2023-03-12T00:16:15.845Z,101073.09
2023-03-12T00:21:12.334Z,101064.44
2023-03-12T00:26:12.148Z,101061.47
2023-03-12T00:31:27.463Z,101063.44
2023-03-12T00:36:26.986Z,101068.16
2023-03-12T00:41:24.554Z,101072.84
2023-03-12T00:46:21.981Z,101071.50
2023-03-12T00:51:19.157Z,101069.88
2023-03-12T00:56:15.622Z,101068.72
2023-03-12T01:01:12.499Z,101073.44
2023-03-12T01:06:09.334Z,101082.03
2023-03-12T01:11:05.806Z,101084.56
2023-03-12T01:16:02.404Z,101091.69
2023-03-12T01:20:59.339Z,101086.97
2023-03-12T01:25:55.841Z,101088.66
2023-03-12T01:30:52.511Z,101086.41
2023-03-12T01:35:49.066Z,101096.22
2023-03-12T01:40:45.609Z,101092.94
2023-03-12T01:46:01.075Z,101095.06
2023-03-12T01:50:59.480Z,101099.47
2023-03-12T01:55:57.311Z,101099.00
2023-03-12T02:00:54.785Z,101104.84
2023-03-12T02:06:04.639Z,101104.38
2023-03-12T02:11:01.042Z,101105.44
2023-03-12T02:15:57.503Z,101102.41
2023-03-12T02:21:18.800Z,101096.13
2023-03-12T02:26:16.509Z,101103.56
2023-03-12T02:31:17.628Z,101100.25
2023-03-12T02:36:14.243Z,101104.41
2023-03-12T02:41:22.456Z,101102.56
2023-03-12T02:46:19.055Z,101094.28
2023-03-12T02:51:15.537Z,101091.31
2023-03-12T02:56:12.053Z,101102.00
2023-03-12T03:01:08.462Z,101095.81
2023-03-12T03:06:05.078Z,101095.75
2023-03-12T03:11:02.980Z,101099.25
2023-03-12T03:16:01.932Z,101094.19
2023-03-12T03:21:04.970Z,101095.81
2023-03-12T03:26:01.605Z,101087.06
2023-03-12T03:31:01.311Z,101090.13
2023-03-12T03:35:59.565Z,101082.78
2023-03-12T03:40:56.110Z,101082.09
2023-03-12T03:46:00.269Z,101073.47
2023-03-12T03:51:01.248Z,101092.16
2023-03-12T03:55:57.729Z,101088.66
2023-03-12T04:00:54.250Z,101093.53
2023-03-12T04:05:55.987Z,101089.31
2023-03-12T04:10:52.651Z,101084.19
2023-03-12T04:15:51.743Z,101094.53
2023-03-12T04:20:48.274Z,101089.16
2023-03-12T04:25:44.643Z,101081.91
2023-03-12T04:30:41.098Z,101082.84
2023-03-12T04:35:37.560Z,101078.88
2023-03-12T04:40:34.173Z,101074.91
2023-03-12T04:45:30.604Z,101072.09
2023-03-12T04:50:27.029Z,101072.22
2023-03-12T04:55:23.513Z,101066.97
2023-03-12T05:00:20.102Z,101071.75
2023-03-12T05:05:16.494Z,101060.19
2023-03-12T05:10:12.984Z,101065.34
2023-03-12T05:15:09.871Z,101069.78
2023-03-12T05:20:06.704Z,101078.88
2023-03-12T05:25:03.830Z,101086.81
2023-03-12T05:30:00.224Z,101079.34
2023-03-12T05:34:56.615Z,101077.69
2023-03-12T05:39:54.567Z,101088.00
2023-03-12T05:44:51.433Z,101080.75
2023-03-12T05:49:47.821Z,101075.38
2023-03-12T05:54:44.190Z,101067.44
2023-03-12T05:59:40.563Z,101059.38
2023-03-12T06:04:36.978Z,101059.47
2023-03-12T06:09:33.450Z,101045.47
2023-03-12T06:14:29.987Z,101060.06
2023-03-12T06:19:26.434Z,101049.91
2023-03-12T06:24:22.838Z,101055.28
2023-03-12T06:29:19.267Z,101045.34
2023-03-12T06:34:16.789Z,101055.28
2023-03-12T06:39:13.284Z,101043.72
2023-03-12T06:44:10.820Z,101039.75
2023-03-12T06:49:07.457Z,101040.31
2023-03-12T06:54:04.352Z,101033.31
2023-03-12T06:59:00.845Z,101032.59
2023-03-12T07:03:57.294Z,101028.16
2023-03-12T07:08:53.730Z,101032.44
2023-03-12T07:13:51.478Z,101040.94
2023-03-12T07:18:48.195Z,101035.97
2023-03-12T07:23:44.576Z,101034.81
2023-03-12T07:28:41.559Z,101034.06
2023-03-12T07:33:38.828Z,101031.00
2023-03-12T07:38:35.309Z,101032.91
2023-03-12T07:43:31.955Z,101028.91
2023-03-12T07:48:28.493Z,101023.38
2023-03-12T07:53:24.928Z,101021.84
2023-03-12T07:58:21.453Z,101020.91
2023-03-12T08:03:18.158Z,101019.63
2023-03-12T08:08:14.728Z,101017.81
2023-03-12T08:13:11.231Z,101022.88
2023-03-12T08:18:07.770Z,101013.47
2023-03-12T08:23:04.203Z,101005.34
2023-03-12T08:28:00.588Z,101009.47
2023-03-12T08:32:58.083Z,101003.84
2023-03-12T08:37:56.788Z,100986.53
2023-03-12T08:42:53.256Z,100995.81
2023-03-12T08:47:50.235Z,100991.22
2023-03-12T08:52:46.629Z,100985.22
2023-03-12T08:57:43.407Z,100982.16
2023-03-12T09:02:39.974Z,100980.63
2023-03-12T09:07:36.588Z,100971.25
2023-03-12T09:12:33.126Z,100963.13
2023-03-12T09:17:30.457Z,100952.34
2023-03-12T09:22:29.429Z,100950.63
2023-03-12T09:27:25.960Z,100929.97
2023-03-12T09:32:23.162Z,100948.31
2023-03-12T09:37:23.590Z,100929.44
2023-03-12T09:42:46.279Z,100913.84
2023-03-12T09:47:55.546Z,100899.97
2023-03-12T09:53:25.969Z,100900.59
2023-03-12T09:58:30.747Z,100877.97
2023-03-12T10:03:46.546Z,100862.09
2023-03-12T10:08:56.407Z,100841.28
2023-03-12T10:14:24.066Z,100826.41
2023-03-12T10:19:35.705Z,100777.41
2023-03-12T10:24:52.802Z,100772.22
2023-03-12T10:29:57.921Z,100761.84
2023-03-12T10:35:04.240Z,100760.88
2023-03-12T10:40:00.873Z,100744.91
2023-03-12T10:45:10.846Z,100741.03
2023-03-12T10:50:16.313Z,100740.50
2023-03-12T10:55:22.064Z,100716.72
2023-03-12T11:00:30.431Z,100724.91
2023-03-12T11:05:29.651Z,100706.00
2023-03-12T11:10:39.102Z,100706.00
2023-03-12T11:15:41.484Z,100697.84
2023-03-12T11:20:37.917Z,100729.28
2023-03-12T11:25:34.371Z,100717.16
2023-03-12T11:30:39.208Z,100716.91
2023-03-12T11:36:07.007Z,100713.94
2023-03-12T11:41:28.194Z,100694.16
2023-03-12T11:46:43.784Z,100682.16
2023-03-12T11:51:58.419Z,100697.34
2023-03-12T11:57:40.692Z,100704.94
2023-03-12T12:02:48.022Z,100694.16
2023-03-12T12:08:03.019Z,100702.81
2023-03-12T12:13:08.747Z,100706.06
2023-03-12T12:18:23.556Z,100688.75
2023-03-12T12:23:30.737Z,100696.56
2023-03-12T12:28:36.269Z,100666.56
2023-03-12T12:33:35.316Z,100661.69
2023-03-12T12:38:55.117Z,100665.78
2023-03-12T12:44:14.142Z,100657.41
2023-03-12T12:49:24.386Z,100656.84
2023-03-12T12:54:46.248Z,100643.88
2023-03-12T13:00:07.299Z,100624.44
2023-03-12T13:05:03.918Z,100613.31
2023-03-12T13:10:06.849Z,100640.34
2023-03-12T13:15:29.526Z,100640.69
2023-03-12T13:20:37.414Z,100622.31
2023-03-12T13:26:01.451Z,100608.25
2023-03-12T13:31:23.697Z,100612.59
2023-03-12T13:36:28.342Z,100603.41
2023-03-12T13:41:31.921Z,100600.16
2023-03-12T13:46:35.965Z,100595.84
2023-03-12T13:51:32.877Z,100582.34
2023-03-12T13:56:32.372Z,100583.41
2023-03-12T14:01:38.047Z,100593.69
2023-03-12T14:07:06.309Z,100585.00
2023-03-12T14:12:21.740Z,100591.47
2023-03-12T14:17:24.274Z,100574.72
2023-03-12T14:22:23.882Z,100558.78
2023-03-12T14:27:30.054Z,100563.88
2023-03-12T14:32:33.415Z,100553.63
2023-03-12T14:37:38.288Z,100554.69
2023-03-12T14:42:36.210Z,100543.63
2023-03-12T14:47:58.780Z,100556.31
2023-03-12T14:53:10.395Z,100543.34
2023-03-12T14:58:17.163Z,100535.25
2023-03-12T15:03:16.588Z,100534.41
2023-03-12T15:08:13.710Z,100518.50
2023-03-12T15:13:12.957Z,100523.31
2023-03-12T15:18:19.585Z,100526.81
2023-03-12T15:23:18.503Z,100518.06
2023-03-12T15:28:14.850Z,100513.78
2023-03-12T15:33:24.076Z,100514.97
2023-03-12T15:38:23.184Z,100505.81
2023-03-12T15:43:21.626Z,100496.13
2023-03-12T15:48:32.178Z,100492.38
2023-03-12T15:53:32.279Z,100489.13
2023-03-12T15:58:32.076Z,100483.50
2023-03-12T16:03:28.482Z,100480.56
2023-03-12T16:08:36.247Z,100477.00
2023-03-12T16:13:33.098Z,100478.34
2023-03-12T16:18:29.517Z,100477.53
2023-03-12T16:23:26.184Z,100472.63
2023-03-12T16:28:23.421Z,100465.97
2023-03-12T16:33:22.755Z,100459.00
2023-03-12T16:38:19.220Z,100451.44
2023-03-12T16:43:19.546Z,100449.84
2023-03-12T16:48:18.923Z,100448.50
2023-03-12T16:53:16.377Z,100442.84
2023-03-12T16:58:15.661Z,100458.47
2023-03-12T17:03:19.339Z,100442.84
2023-03-12T17:08:16.200Z,100433.13
2023-03-12T17:13:19.410Z,100437.38
2023-03-12T17:18:16.941Z,100432.06
2023-03-12T17:23:14.103Z,100436.34
2023-03-12T17:28:11.175Z,100453.09
2023-03-12T17:33:12.841Z,100439.09
2023-03-12T17:38:10.210Z,100425.91
2023-03-12T17:43:06.774Z,100433.75
2023-03-12T17:48:04.241Z,100439.13
2023-03-12T17:53:00.898Z,100425.13
2023-03-12T17:57:57.675Z,100430.56
2023-03-12T18:02:57.229Z,100446.75
2023-03-12T18:07:54.024Z,100457.00
2023-03-12T18:12:50.956Z,100431.66
2023-03-12T18:17:51.918Z,100435.44
2023-03-12T18:22:48.612Z,100431.66
2023-03-12T18:27:45.426Z,100424.13
2023-03-12T18:32:41.937Z,100418.75
2023-03-12T18:37:38.511Z,100412.25
2023-03-12T18:42:34.914Z,100418.72
2023-03-12T18:47:32.743Z,100423.59
2023-03-12T18:52:29.133Z,100425.75
2023-03-12T18:57:25.554Z,100431.38
2023-03-12T19:02:23.715Z,100442.84
2023-03-12T19:07:20.321Z,100435.19
2023-03-12T19:12:16.695Z,100433.47
2023-03-12T19:17:13.100Z,100429.63
2023-03-12T19:22:09.597Z,100414.94
2023-03-12T19:27:06.153Z,100423.53
2023-03-12T19:32:02.797Z,100413.69
2023-03-12T19:36:59.269Z,100406.56
2023-03-12T19:41:59.080Z,100420.00
2023-03-12T19:46:55.568Z,100431.84
2023-03-12T19:51:51.998Z,100430.13
2023-03-12T19:56:48.476Z,100424.09
2023-03-12T20:01:44.920Z,100422.41
2023-03-12T20:06:41.306Z,100436.09
2023-03-12T20:11:37.869Z,100444.47
2023-03-12T20:16:34.425Z,100430.88
2023-03-12T20:21:30.940Z,100424.31
2023-03-12T20:26:27.743Z,100438.88
2023-03-12T20:31:24.259Z,100429.16
2023-03-12T20:36:20.815Z,100425.31
2023-03-12T20:41:17.584Z,100426.38
2023-03-12T20:46:14.362Z,100417.72
2023-03-12T20:51:10.842Z,100409.31
2023-03-12T20:56:07.831Z,100402.97
2023-03-12T21:01:05.511Z,100412.13
2023-03-12T21:06:03.090Z,100407.22
2023-03-12T21:10:59.688Z,100406.19
2023-03-12T21:15:56.111Z,100415.88
2023-03-12T21:20:52.483Z,100421.16
2023-03-12T21:25:56.916Z,100414.06
2023-03-12T21:30:53.429Z,100401.03
2023-03-12T21:35:49.988Z,100400.38
2023-03-12T21:40:46.467Z,100394.38
2023-03-12T21:45:42.908Z,100397.03
2023-03-12T21:50:39.297Z,100380.97
2023-03-12T21:55:35.776Z,100366.31
2023-03-12T22:00:32.409Z,100371.50
2023-03-12T22:05:28.816Z,100365.50
2023-03-12T22:10:25.253Z,100361.69
2023-03-12T22:15:21.692Z,100349.81
2023-03-12T22:20:18.143Z,100350.31
2023-03-12T22:25:14.589Z,100333.97
2023-03-12T22:30:13.090Z,100323.53
2023-03-12T22:35:09.705Z,100313.16
2023-03-12T22:40:07.161Z,100319.06
2023-03-12T22:45:03.917Z,100309.84
2023-03-12T22:50:00.386Z,100315.16
2023-03-12T22:54:56.857Z,100308.69
2023-03-12T22:59:53.295Z,100306.97
2023-03-12T23:04:49.772Z,100298.25
2023-03-12T23:09:47.383Z,100280.34
2023-03-12T23:14:43.947Z,100280.84
2023-03-12T23:19:42.590Z,100285.09
2023-03-12T23:24:39.219Z,100279.06
2023-03-12T23:29:35.639Z,100278.06
2023-03-12T23:34:33.844Z,100267.53
2023-03-12T23:39:30.826Z,100260.38
2023-03-12T23:44:27.261Z,100258.78
2023-03-12T23:49:23.813Z,100251.72
2023-03-12T23:54:20.191Z,100255.34
2023-03-12T23:59:16.569Z,100244.50
